Time;durP1;ratioP1;P1;durP2;ratioP2;P2;SDS_P1;SDS_P2;PMS_P1;PMS_P2;Temp;Humidity;BMP_temperature;BMP_pressure;BME280_temperature;BME280_humidity;BME280_pressure;Samples;Min_cycle;Max_cycle;Signal;HPM_P1;HPM_P2
2022/03/30 00:01:13;;;;;;;0.70;0.60;;;;;;;;;;5073716;28;20461;-75
2022/03/30 00:03:39;;;;;;;0.70;0.60;;;;;;;;;;5069677;28;20548;-75
2022/03/30 00:06:08;;;;;;;0.70;0.60;;;;;;;;;;5072391;28;20481;-75
2022/03/30 00:08:34;;;;;;;0.80;0.80;;;;;;;;;;5074244;28;20439;-75
2022/03/30 00:11:02;;;;;;;0.70;0.60;;;;;;;;;;5074749;28;20469;-76
2022/03/30 00:13:29;;;;;;;0.70;0.60;;;;;;;;;;5071857;28;20439;-75
2022/03/30 00:15:55;;;;;;;0.70;0.60;;;;;;;;;;5072543;28;20431;-75
2022/03/30 00:18:24;;;;;;;0.70;0.60;;;;;;;;;;5074477;28;20485;-75
2022/03/30 00:20:51;;;;;;;0.70;0.60;;;;;;;;;;5057316;28;21027;-75
2022/03/30 00:23:18;;;;;;;0.70;0.60;;;;;;;;;;5069212;28;20561;-75
2022/03/30 00:25:45;;;;;;;0.70;0.60;;;;;;;;;;5074588;28;20408;-75
2022/03/30 00:28:12;;;;;;;0.70;0.60;;;;;;;;;;5073758;28;20444;-75
2022/03/30 00:30:38;;;;;;;0.70;0.60;;;;;;;;;;5055949;28;20459;-75
2022/03/30 00:33:05;;;;;;;0.70;0.60;;;;;;;;;;5073253;28;20438;-76
2022/03/30 00:35:34;;;;;;;0.70;0.60;;;;;;;;;;5073475;28;20542;-75
2022/03/30 00:38:01;;;;;;;0.70;0.60;;;;;;;;;;5073241;28;20504;-75
2022/03/30 00:40:34;;;;;;;1.00;0.90;;;;;;;;;;5058423;28;21020;-75
2022/03/30 00:43:03;;;;;;;0.70;0.60;;;;;;;;;;5053452;28;20465;-75
2022/03/30 00:45:33;;;;;;;0.70;0.60;;;;;;;;;;5055026;28;20477;-75
2022/03/30 00:48:07;;;;;;;0.70;0.60;;;;;;;;;;5064289;28;20429;-75
2022/03/30 00:50:39;;;;;;;0.70;0.60;;;;;;;;;;5072382;28;20447;-75
2022/03/30 00:53:07;;;;;;;0.70;0.60;;;;;;;;;;5071480;28;20554;-75
2022/03/30 00:55:36;;;;;;;0.70;0.60;;;;;;;;;;5073236;28;20399;-73
2022/03/30 00:58:23;;;;;;;0.70;0.60;;;;;;;;;;5072783;28;20410;-74
2022/03/30 01:00:51;;;;;;;0.70;0.60;;;;;;;;;;5070512;28;20451;-75
2022/03/30 01:03:20;;;;;;;0.70;0.70;;;;;;;;;;5072118;28;20493;-74
2022/03/30 01:05:51;;;;;;;0.70;0.60;;;;;;;;;;5070454;28;20532;-74
2022/03/30 01:08:20;;;;;;;0.83;0.83;;;;;;;;;;5073838;28;20821;-73
2022/03/30 01:10:48;;;;;;;0.70;0.60;;;;;;;;;;5064675;28;20470;-73
2022/03/30 01:13:19;;;;;;;0.70;0.60;;;;;;;;;;5052999;28;20563;-73
2022/03/30 01:15:49;;;;;;;0.70;0.60;;;;;;;;;;5065967;28;20474;-74
2022/03/30 01:18:18;;;;;;;1.23;1.13;;;;;;;;;;5056482;28;20448;-75
2022/03/30 01:20:49;;;;;;;0.70;0.60;;;;;;;;;;5053429;28;20408;-75
2022/03/30 01:23:21;;;;;;;0.70;0.60;;;;;;;;;;5061773;28;20463;-75
2022/03/30 01:25:53;;;;;;;0.70;0.60;;;;;;;;;;5052867;28;20436;-75
2022/03/30 01:28:22;;;;;;;0.70;0.60;;;;;;;;;;5051719;28;20468;-75
2022/03/30 01:33:39;;;;;;;0.80;0.70;;;;;;;;;;5063792;28;20972;-75
2022/03/30 01:36:11;;;;;;;0.80;0.80;;;;;;;;;;5059599;28;20562;-76
2022/03/30 01:38:43;;;;;;;0.70;0.60;;;;;;;;;;5052931;28;20431;-72
2022/03/30 01:41:16;;;;;;;0.97;0.97;;;;;;;;;;5056326;28;20449;-76
2022/03/30 01:43:44;;;;;;;0.70;0.60;;;;;;;;;;5064536;28;21007;-75
2022/03/30 01:46:13;;;;;;;0.70;0.60;;;;;;;;;;5069200;28;20447;-75
2022/03/30 01:48:42;;;;;;;1.33;1.10;;;;;;;;;;5072460;28;20439;-74
2022/03/30 01:51:15;;;;;;;0.70;0.60;;;;;;;;;;5068625;28;20956;-74
2022/03/30 01:53:44;;;;;;;0.70;0.63;;;;;;;;;;5057458;28;20512;-74
2022/03/30 01:56:11;;;;;;;0.70;0.63;;;;;;;;;;5073711;28;20771;-74
2022/03/30 01:58:37;;;;;;;0.70;0.60;;;;;;;;;;5073357;28;20486;-74
2022/03/30 02:01:05;;;;;;;0.70;0.60;;;;;;;;;;5066758;28;20448;-74
2022/03/30 02:03:32;;;;;;;0.70;0.60;;;;;;;;;;5054325;28;20447;-74
2022/03/30 02:05:59;;;;;;;0.70;0.60;;;;;;;;;;5055235;28;20244;-74
2022/03/30 02:08:28;;;;;;;0.80;0.60;;;;;;;;;;5047585;28;20634;-74
2022/03/30 02:10:55;;;;;;;0.80;0.70;;;;;;;;;;5054740;28;20281;-74
2022/03/30 02:13:21;;;;;;;0.70;0.60;;;;;;;;;;5057919;28;20984;-74
2022/03/30 02:15:49;;;;;;;0.70;0.70;;;;;;;;;;5075973;28;20501;-74
2022/03/30 02:18:16;;;;;;;0.70;0.60;;;;;;;;;;5069521;28;20935;-74
2022/03/30 02:20:43;;;;;;;0.70;0.60;;;;;;;;;;5055607;28;20852;-74
2022/03/30 02:23:09;;;;;;;0.70;0.70;;;;;;;;;;5055411;28;20439;-74
2022/03/30 02:25:38;;;;;;;0.70;0.70;;;;;;;;;;5075417;28;20469;-74
2022/03/30 02:28:05;;;;;;;0.70;0.60;;;;;;;;;;5061455;28;20535;-74
2022/03/30 02:30:31;;;;;;;0.70;0.60;;;;;;;;;;5062242;28;20447;-75
2022/03/30 02:32:58;;;;;;;0.77;0.70;;;;;;;;;;5054819;28;20447;-75
2022/03/30 02:35:25;;;;;;;0.70;0.60;;;;;;;;;;5059605;28;20185;-75
2022/03/30 02:37:55;;;;;;;0.70;0.60;;;;;;;;;;5075481;28;20447;-75
2022/03/30 02:40:22;;;;;;;0.70;0.68;;;;;;;;;;5073871;28;20753;-75
2022/03/30 02:42:50;;;;;;;0.80;0.70;;;;;;;;;;5064325;28;20273;-75
2022/03/30 02:45:16;;;;;;;0.70;0.63;;;;;;;;;;5072281;28;20256;-75
2022/03/30 02:50:28;;;;;;;0.70;0.70;;;;;;;;;;5073157;28;20435;-75
2022/03/30 02:52:55;;;;;;;0.70;0.60;;;;;;;;;;5074808;28;20249;-74
2022/03/30 02:55:21;;;;;;;0.70;0.65;;;;;;;;;;5070677;28;20182;-74
2022/03/30 02:57:49;;;;;;;0.80;0.70;;;;;;;;;;5056531;28;20190;-74
2022/03/30 03:00:16;;;;;;;0.70;0.70;;;;;;;;;;5064920;28;20201;-74
2022/03/30 03:06:37;;;;;;;0.70;0.70;;;;;;;;;;5063976;28;20498;-74
2022/03/30 03:09:04;;;;;;;0.70;0.60;;;;;;;;;;5074430;28;20501;-76
2022/03/30 03:11:30;;;;;;;0.70;0.60;;;;;;;;;;5074639;28;20244;-74
2022/03/30 03:13:58;;;;;;;0.70;0.60;;;;;;;;;;5070080;28;20208;-74
2022/03/30 03:16:25;;;;;;;0.70;0.60;;;;;;;;;;5074868;28;20500;-74
2022/03/30 03:18:52;;;;;;;0.70;0.60;;;;;;;;;;5075747;28;20461;-74
2022/03/30 03:21:19;;;;;;;0.70;0.60;;;;;;;;;;5055981;28;20454;-75
2022/03/30 03:23:47;;;;;;;0.80;0.80;;;;;;;;;;5067940;28;20829;-75
2022/03/30 03:26:14;;;;;;;0.70;0.63;;;;;;;;;;5073084;28;20442;-74
2022/03/30 03:28:42;;;;;;;0.70;0.60;;;;;;;;;;5063648;28;20524;-74
2022/03/30 03:31:10;;;;;;;1.73;1.60;;;;;;;;;;5057852;28;20222;-75
2022/03/30 03:33:37;;;;;;;0.70;0.60;;;;;;;;;;5073681;28;20203;-74
2022/03/30 03:36:05;;;;;;;0.80;0.75;;;;;;;;;;5063720;28;20464;-74
2022/03/30 03:38:31;;;;;;;0.80;0.70;;;;;;;;;;5055314;28;20194;-74
2022/03/30 03:40:58;;;;;;;0.70;0.60;;;;;;;;;;5050016;28;20654;-74
2022/03/30 03:43:25;;;;;;;0.70;0.68;;;;;;;;;;5037700;28;20833;-75
2022/03/30 03:45:52;;;;;;;0.75;0.70;;;;;;;;;;5053640;28;20576;-73
2022/03/30 03:48:20;;;;;;;0.70;0.70;;;;;;;;;;5054447;28;20207;-74
2022/03/30 03:50:50;;;;;;;0.70;0.60;;;;;;;;;;5056215;28;20426;-74
2022/03/30 03:53:16;;;;;;;0.70;0.70;;;;;;;;;;5055907;28;20635;-74
2022/03/30 03:55:43;;;;;;;1.00;0.70;;;;;;;;;;5061205;28;20538;-74
2022/03/30 03:58:11;;;;;;;0.70;0.60;;;;;;;;;;5073138;28;20287;-74
2022/03/30 04:00:37;;;;;;;0.70;0.70;;;;;;;;;;5075105;28;20669;-75
2022/03/30 04:03:07;;;;;;;0.70;0.60;;;;;;;;;;5075099;28;20206;-75
2022/03/30 04:05:36;;;;;;;0.80;0.80;;;;;;;;;;5069626;28;20215;-76
2022/03/30 04:08:03;;;;;;;0.70;0.70;;;;;;;;;;5074535;28;20633;-75
2022/03/30 04:10:30;;;;;;;0.70;0.60;;;;;;;;;;5074126;28;20423;-74
2022/03/30 04:12:57;;;;;;;0.70;0.60;;;;;;;;;;5074168;28;20206;-75
2022/03/30 04:15:24;;;;;;;0.70;0.60;;;;;;;;;;5065348;28;20201;-75
2022/03/30 04:17:52;;;;;;;0.73;0.68;;;;;;;;;;5074105;28;20489;-75
2022/03/30 04:20:18;;;;;;;0.70;0.60;;;;;;;;;;5075388;28;20196;-75
2022/03/30 04:22:47;;;;;;;0.70;0.60;;;;;;;;;;5071404;28;20254;-75
2022/03/30 04:25:14;;;;;;;0.80;0.77;;;;;;;;;;5037727;28;20535;-75
2022/03/30 04:27:45;;;;;;;0.70;0.70;;;;;;;;;;5073390;28;20546;-75
2022/03/30 04:30:12;;;;;;;0.70;0.60;;;;;;;;;;5074752;28;20263;-75
2022/03/30 04:32:39;;;;;;;0.70;0.70;;;;;;;;;;5055011;28;20296;-73
2022/03/30 04:35:06;;;;;;;0.70;0.60;;;;;;;;;;5055466;28;20211;-75
2022/03/30 04:37:33;;;;;;;0.70;0.60;;;;;;;;;;5062162;28;20220;-75
2022/03/30 04:40:01;;;;;;;0.70;0.60;;;;;;;;;;5074806;28;20370;-75
2022/03/30 04:42:28;;;;;;;0.70;0.60;;;;;;;;;;5071914;28;20223;-74
2022/03/30 04:44:57;;;;;;;0.70;0.60;;;;;;;;;;5072885;28;20468;-74
2022/03/30 04:47:24;;;;;;;0.70;0.60;;;;;;;;;;5072010;28;20305;-74
2022/03/30 04:49:50;;;;;;;1.00;0.90;;;;;;;;;;5074326;28;20192;-74
2022/03/30 04:52:18;;;;;;;0.70;0.60;;;;;;;;;;5052475;28;20221;-74
2022/03/30 04:54:45;;;;;;;0.70;0.60;;;;;;;;;;5053061;28;20662;-75
2022/03/30 04:57:13;;;;;;;0.70;0.70;;;;;;;;;;5066681;28;20191;-75
2022/03/30 04:59:43;;;;;;;0.70;0.60;;;;;;;;;;5052115;28;20202;-74
2022/03/30 05:02:09;;;;;;;0.70;0.70;;;;;;;;;;5060141;28;20211;-76
2022/03/30 05:04:36;;;;;;;0.70;0.70;;;;;;;;;;5051876;28;20541;-75
2022/03/30 05:07:03;;;;;;;0.70;0.60;;;;;;;;;;5052655;28;20584;-74
2022/03/30 05:09:29;;;;;;;0.70;0.60;;;;;;;;;;5052414;28;20727;-75
2022/03/30 05:11:58;;;;;;;0.70;0.60;;;;;;;;;;5053329;28;20201;-75
2022/03/30 05:14:26;;;;;;;0.70;0.60;;;;;;;;;;5058980;28;20653;-75
2022/03/30 05:16:54;;;;;;;0.70;0.70;;;;;;;;;;5052630;28;20448;-76
2022/03/30 05:19:21;;;;;;;0.70;0.60;;;;;;;;;;5053694;28;20428;-75
2022/03/30 05:21:48;;;;;;;0.80;0.80;;;;;;;;;;5052308;28;20221;-76
2022/03/30 05:24:14;;;;;;;0.70;0.70;;;;;;;;;;5068724;28;20203;-75
2022/03/30 05:26:43;;;;;;;0.73;0.68;;;;;;;;;;5052853;28;20650;-75
2022/03/30 05:29:10;;;;;;;0.80;0.70;;;;;;;;;;5067817;28;20191;-75
2022/03/30 05:31:38;;;;;;;0.70;0.60;;;;;;;;;;5061837;28;20554;-76
2022/03/30 05:34:04;;;;;;;0.70;0.70;;;;;;;;;;5047909;28;20213;-76
2022/03/30 05:36:31;;;;;;;0.70;0.60;;;;;;;;;;5055868;28;20499;-75
2022/03/30 05:38:58;;;;;;;0.70;0.60;;;;;;;;;;5053901;28;20219;-76
2022/03/30 05:41:24;;;;;;;0.70;0.60;;;;;;;;;;5055096;28;20426;-75
2022/03/30 05:43:53;;;;;;;0.70;0.60;;;;;;;;;;5055575;28;20452;-76
2022/03/30 05:46:19;;;;;;;0.70;0.60;;;;;;;;;;5067231;28;20286;-76
2022/03/30 05:48:51;;;;;;;0.70;0.60;;;;;;;;;;5071893;28;20437;-76
2022/03/30 05:51:18;;;;;;;0.70;0.60;;;;;;;;;;5069073;28;20618;-73
2022/03/30 05:53:49;;;;;;;0.70;0.63;;;;;;;;;;5070657;28;20476;-76
2022/03/30 05:56:15;;;;;;;0.70;0.60;;;;;;;;;;5066175;28;20550;-76
2022/03/30 05:58:42;;;;;;;0.70;0.60;;;;;;;;;;5070690;28;20435;-76
2022/03/30 06:01:09;;;;;;;0.70;0.70;;;;;;;;;;5064018;28;20439;-75
2022/03/30 06:03:37;;;;;;;0.70;0.70;;;;;;;;;;5070618;28;20198;-76
2022/03/30 06:06:06;;;;;;;0.70;0.60;;;;;;;;;;5074753;28;20691;-76
2022/03/30 06:08:34;;;;;;;0.70;0.70;;;;;;;;;;5072444;28;20453;-76
2022/03/30 06:11:00;;;;;;;0.70;0.60;;;;;;;;;;5076895;28;20894;-76
2022/03/30 06:13:28;;;;;;;0.70;0.60;;;;;;;;;;5080694;28;20454;-75
2022/03/30 06:15:54;;;;;;;2.20;2.03;;;;;;;;;;5080023;28;20203;-75
2022/03/30 06:18:21;;;;;;;0.70;0.60;;;;;;;;;;5087983;28;20467;-76
2022/03/30 06:20:48;;;;;;;1.77;1.67;;;;;;;;;;5055402;28;20200;-76
2022/03/30 06:23:17;;;;;;;1.10;0.90;;;;;;;;;;5072176;28;20419;-76
2022/03/30 06:25:44;;;;;;;0.70;0.60;;;;;;;;;;5051940;28;20459;-76
2022/03/30 06:28:11;;;;;;;0.70;0.60;;;;;;;;;;5070963;28;20289;-76
2022/03/30 06:30:38;;;;;;;0.70;0.60;;;;;;;;;;5041212;28;21039;-76
2022/03/30 06:33:05;;;;;;;0.90;0.90;;;;;;;;;;5063079;28;20444;-75
2022/03/30 06:35:32;;;;;;;0.70;0.70;;;;;;;;;;5053840;28;20932;-75
2022/03/30 06:37:59;;;;;;;0.70;0.60;;;;;;;;;;5053171;28;20952;-75
2022/03/30 06:40:26;;;;;;;2.00;1.53;;;;;;;;;;5051593;28;20451;-75
2022/03/30 06:42:54;;;;;;;0.70;0.60;;;;;;;;;;5051282;28;20569;-74
2022/03/30 06:45:22;;;;;;;0.70;0.60;;;;;;;;;;5057267;28;20897;-75
2022/03/30 06:47:49;;;;;;;0.70;0.70;;;;;;;;;;5052349;28;20455;-75
2022/03/30 06:50:18;;;;;;;0.70;0.60;;;;;;;;;;5051838;28;20470;-75
2022/03/30 06:52:46;;;;;;;0.70;0.70;;;;;;;;;;5053066;28;20805;-75
2022/03/30 06:55:14;;;;;;;0.80;0.70;;;;;;;;;;5053008;28;20442;-75
2022/03/30 06:57:43;;;;;;;1.47;0.90;;;;;;;;;;5071073;28;20530;-75
2022/03/30 07:00:13;;;;;;;0.70;0.60;;;;;;;;;;5058980;28;20473;-74
2022/03/30 07:02:40;;;;;;;0.77;0.70;;;;;;;;;;5067178;28;20505;-75
2022/03/30 07:05:08;;;;;;;0.70;0.60;;;;;;;;;;5056610;28;20459;-74
2022/03/30 07:10:33;;;;;;;1.37;1.07;;;;;;;;;;5054945;28;20542;-76
2022/03/30 07:13:03;;;;;;;1.17;0.97;;;;;;;;;;5056350;28;20896;-76
2022/03/30 07:15:31;;;;;;;0.90;0.90;;;;;;;;;;5054340;28;20530;-76
2022/03/30 07:18:00;;;;;;;4.30;1.00;;;;;;;;;;5055899;28;20500;-76
2022/03/30 07:20:32;;;;;;;0.70;0.60;;;;;;;;;;5057901;28;20449;-76
2022/03/30 07:22:59;;;;;;;1.53;1.43;;;;;;;;;;5056058;28;20459;-76
2022/03/30 07:25:28;;;;;;;0.70;0.60;;;;;;;;;;5056015;28;20819;-76
2022/03/30 07:27:58;;;;;;;0.83;0.83;;;;;;;;;;5041422;28;20461;-77
2022/03/30 07:30:26;;;;;;;0.70;0.60;;;;;;;;;;5058623;28;20441;-76
2022/03/30 07:32:57;;;;;;;0.80;0.70;;;;;;;;;;5064960;28;20483;-76
2022/03/30 07:35:25;;;;;;;0.70;0.60;;;;;;;;;;5072252;28;20862;-76
2022/03/30 07:37:54;;;;;;;0.70;0.63;;;;;;;;;;5068938;28;20468;-76
2022/03/30 07:40:22;;;;;;;0.93;0.93;;;;;;;;;;5056345;28;20415;-76
2022/03/30 07:42:49;;;;;;;1.10;0.80;;;;;;;;;;5054260;28;20430;-77
2022/03/30 07:45:17;;;;;;;0.70;0.60;;;;;;;;;;5053991;28;20518;-76
2022/03/30 07:47:45;;;;;;;0.90;0.90;;;;;;;;;;5054542;28;20448;-76
2022/03/30 07:50:13;;;;;;;0.80;0.73;;;;;;;;;;5054462;28;20524;-76
2022/03/30 07:52:40;;;;;;;1.43;1.33;;;;;;;;;;5038594;28;20484;-74
2022/03/30 07:55:08;;;;;;;1.77;1.67;;;;;;;;;;5055167;28;20825;-75
2022/03/30 07:57:37;;;;;;;0.80;0.70;;;;;;;;;;5054308;28;20475;-75
2022/03/30 08:00:05;;;;;;;0.80;0.80;;;;;;;;;;5038386;28;20432;-75
2022/03/30 08:02:31;;;;;;;2.00;1.20;;;;;;;;;;5068715;28;20441;-75
2022/03/30 08:04:59;;;;;;;3.03;1.47;;;;;;;;;;5055391;28;20426;-77
2022/03/30 08:07:30;;;;;;;0.70;0.70;;;;;;;;;;5066957;28;20487;-77
2022/03/30 08:09:57;;;;;;;0.80;0.80;;;;;;;;;;5054249;28;20674;-77
2022/03/30 08:12:25;;;;;;;1.97;1.77;;;;;;;;;;5057650;28;20458;-76
2022/03/30 08:14:54;;;;;;;1.20;1.07;;;;;;;;;;5056903;28;20913;-77
2022/03/30 08:17:21;;;;;;;1.00;0.90;;;;;;;;;;5057077;28;20485;-77
2022/03/30 08:19:47;;;;;;;0.80;0.80;;;;;;;;;;5071523;28;20549;-75
2022/03/30 08:22:28;;;;;;;9.40;1.43;;;;;;;;;;5070937;28;20462;-77
2022/03/30 08:24:56;;;;;;;1.13;1.03;;;;;;;;;;5073602;28;20441;-77
2022/03/30 08:27:24;;;;;;;0.80;0.80;;;;;;;;;;5066327;28;20529;-77
2022/03/30 08:29:51;;;;;;;1.67;1.50;;;;;;;;;;5039038;28;20535;-77
2022/03/30 08:32:21;;;;;;;0.80;0.70;;;;;;;;;;5053920;28;20452;-77
2022/03/30 08:34:48;;;;;;;1.37;1.27;;;;;;;;;;5067587;28;20449;-77
2022/03/30 08:37:16;;;;;;;0.80;0.80;;;;;;;;;;5055950;28;21062;-76
2022/03/30 08:39:44;;;;;;;0.97;0.87;;;;;;;;;;5074977;28;20414;-78
2022/03/30 08:42:13;;;;;;;0.80;0.80;;;;;;;;;;5074952;28;20415;-79
2022/03/30 08:44:41;;;;;;;0.80;0.80;;;;;;;;;;5059099;28;20941;-77
2022/03/30 08:47:08;;;;;;;2.87;2.67;;;;;;;;;;5062057;28;20504;-76
2022/03/30 08:49:37;;;;;;;2.03;1.57;;;;;;;;;;5073412;28;20901;-75
2022/03/30 08:52:05;;;;;;;0.77;0.70;;;;;;;;;;5062281;28;20487;-74
2022/03/30 08:54:34;;;;;;;0.80;0.80;;;;;;;;;;5054790;28;20517;-75
2022/03/30 08:57:01;;;;;;;0.80;0.70;;;;;;;;;;5053225;28;20434;-75
2022/03/30 08:59:29;;;;;;;0.80;0.70;;;;;;;;;;5061746;28;20518;-77
2022/03/30 09:01:57;;;;;;;0.80;0.70;;;;;;;;;;5055427;28;20853;-77
2022/03/30 09:04:25;;;;;;;5.70;1.37;;;;;;;;;;5064079;28;20436;-75
2022/03/30 09:06:53;;;;;;;1.43;1.30;;;;;;;;;;5061036;28;20985;-76
2022/03/30 09:09:28;;;;;;;1.43;1.33;;;;;;;;;;5093705;28;20414;-77
2022/03/30 09:11:57;;;;;;;1.23;1.13;;;;;;;;;;5095101;28;20450;-76
2022/03/30 09:14:25;;;;;;;1.57;1.47;;;;;;;;;;5092751;28;20524;-77
2022/03/30 09:16:52;;;;;;;1.17;0.90;;;;;;;;;;5085616;28;20450;-75
2022/03/30 09:19:20;;;;;;;1.00;0.80;;;;;;;;;;5078955;28;20501;-75
2022/03/30 09:21:48;;;;;;;7.00;2.37;;;;;;;;;;5055597;28;20410;-74
2022/03/30 09:24:15;;;;;;;1.20;1.10;;;;;;;;;;5052157;28;20423;-76
2022/03/30 09:26:42;;;;;;;3.33;1.10;;;;;;;;;;5070566;28;20451;-79
2022/03/30 09:29:11;;;;;;;2.00;1.90;;;;;;;;;;5064484;28;20427;-76
2022/03/30 09:31:42;;;;;;;1.20;1.10;;;;;;;;;;5071660;28;20422;-78
2022/03/30 09:34:10;;;;;;;1.53;0.90;;;;;;;;;;5072611;28;20447;-77
2022/03/30 09:36:38;;;;;;;2.20;2.00;;;;;;;;;;5059270;28;20460;-79
2022/03/30 09:39:06;;;;;;;0.80;0.70;;;;;;;;;;5063670;28;20933;-76
2022/03/30 09:41:49;;;;;;;0.80;0.73;;;;;;;;;;5054170;28;20412;-80
2022/03/30 09:44:22;;;;;;;0.80;0.80;;;;;;;;;;5054541;28;20456;-76
2022/03/30 09:46:53;;;;;;;0.80;0.80;;;;;;;;;;5052578;28;20426;-79
2022/03/30 09:49:34;;;;;;;0.87;0.87;;;;;;;;;;5035716;28;20415;-78
2022/03/30 09:52:09;;;;;;;1.10;1.00;;;;;;;;;;5052194;28;20797;-77
2022/03/30 09:54:36;;;;;;;0.93;0.90;;;;;;;;;;5058730;28;20873;-78
2022/03/30 09:57:08;;;;;;;2.17;1.00;;;;;;;;;;5059703;28;20437;-78
2022/03/30 09:59:49;;;;;;;0.77;0.67;;;;;;;;;;5086668;28;20878;-77
2022/03/30 10:02:17;;;;;;;0.70;0.60;;;;;;;;;;5071181;28;20447;-76
2022/03/30 10:04:46;;;;;;;0.80;0.70;;;;;;;;;;5072217;28;20469;-75
2022/03/30 10:07:15;;;;;;;3.13;2.07;;;;;;;;;;5070299;28;20463;-76
2022/03/30 10:09:46;;;;;;;1.83;1.30;;;;;;;;;;5052018;28;20436;-76
2022/03/30 10:12:16;;;;;;;0.70;0.67;;;;;;;;;;5048069;28;20438;-76
2022/03/30 10:14:44;;;;;;;1.10;1.03;;;;;;;;;;5071350;28;20394;-77
2022/03/30 10:17:12;;;;;;;0.70;0.60;;;;;;;;;;5040967;28;20418;-75
2022/03/30 10:19:42;;;;;;;0.80;0.73;;;;;;;;;;5072050;28;20420;-76
2022/03/30 10:22:14;;;;;;;1.27;1.17;;;;;;;;;;5065861;28;20521;-76
2022/03/30 10:24:56;;;;;;;0.80;0.70;;;;;;;;;;5061228;28;20460;-76
2022/03/30 10:27:27;;;;;;;1.20;1.10;;;;;;;;;;5082304;28;20840;-76
2022/03/30 10:29:57;;;;;;;1.90;1.33;;;;;;;;;;5053838;28;20530;-76
2022/03/30 10:32:25;;;;;;;1.73;0.90;;;;;;;;;;5054163;28;20463;-76
2022/03/30 10:35:01;;;;;;;0.87;0.80;;;;;;;;;;5040692;28;20970;-76
2022/03/30 10:37:29;;;;;;;1.17;1.07;;;;;;;;;;5077396;28;20451;-75
2022/03/30 10:40:07;;;;;;;1.37;1.27;;;;;;;;;;5074296;28;20542;-76
2022/03/30 10:42:54;;;;;;;0.70;0.67;;;;;;;;;;5062317;28;20501;-75
2022/03/30 10:45:23;;;;;;;1.33;1.23;;;;;;;;;;5051306;28;20433;-75
2022/03/30 10:48:05;;;;;;;0.80;0.67;;;;;;;;;;5061921;28;20476;-76
2022/03/30 10:50:34;;;;;;;0.97;0.90;;;;;;;;;;5077000;28;20390;-76
2022/03/30 10:53:01;;;;;;;1.33;1.20;;;;;;;;;;5074195;28;20417;-76
2022/03/30 10:55:29;;;;;;;1.60;1.30;;;;;;;;;;5069137;28;20403;-75
2022/03/30 10:58:01;;;;;;;1.20;1.10;;;;;;;;;;5055565;28;20435;-77
2022/03/30 11:00:28;;;;;;;7.03;1.63;;;;;;;;;;5057507;28;20439;-77
2022/03/30 11:03:09;;;;;;;1.90;0.93;;;;;;;;;;5074456;28;20504;-76
2022/03/30 11:05:39;;;;;;;2.33;1.53;;;;;;;;;;5056414;28;20504;-76
2022/03/30 11:08:06;;;;;;;0.97;0.93;;;;;;;;;;5074935;28;20519;-77
2022/03/30 11:10:48;;;;;;;1.93;1.00;;;;;;;;;;5076340;28;20886;-76
2022/03/30 11:13:23;;;;;;;1.10;1.00;;;;;;;;;;5075340;28;20389;-76
2022/03/30 11:16:11;;;;;;;1.10;1.00;;;;;;;;;;5072286;28;20771;-77
2022/03/30 11:18:58;;;;;;;0.70;0.60;;;;;;;;;;5076523;28;20431;-77
2022/03/30 11:21:26;;;;;;;0.77;0.70;;;;;;;;;;5061763;28;20478;-77
2022/03/30 11:24:17;;;;;;;1.07;0.90;;;;;;;;;;5037610;28;20986;-75
2022/03/30 11:27:17;;;;;;;0.80;0.73;;;;;;;;;;5056308;28;20452;-77
2022/03/30 11:29:49;;;;;;;0.80;0.70;;;;;;;;;;5002447;28;20837;-76
2022/03/30 11:32:38;;;;;;;0.80;0.60;;;;;;;;;;5013734;28;20567;-76
2022/03/30 11:35:05;;;;;;;0.80;0.80;;;;;;;;;;5050943;28;20446;-76
2022/03/30 11:37:36;;;;;;;0.97;0.87;;;;;;;;;;5064821;28;20463;-76
2022/03/30 11:40:03;;;;;;;1.27;0.93;;;;;;;;;;5059577;28;20418;-76
2022/03/30 11:42:30;;;;;;;0.80;0.70;;;;;;;;;;5068258;28;20434;-76
2022/03/30 11:45:14;;;;;;;0.80;0.70;;;;;;;;;;5059068;28;20497;-76
2022/03/30 11:47:44;;;;;;;1.57;1.47;;;;;;;;;;5066061;28;20553;-75
2022/03/30 11:50:15;;;;;;;1.30;1.17;;;;;;;;;;5073959;28;20440;-75
2022/03/30 11:52:44;;;;;;;1.90;1.17;;;;;;;;;;5075468;28;20489;-77
2022/03/30 11:55:12;;;;;;;0.80;0.80;;;;;;;;;;5074393;28;20411;-77
2022/03/30 11:57:39;;;;;;;1.87;1.20;;;;;;;;;;5073140;28;20810;-75
2022/03/30 12:00:09;;;;;;;1.27;1.17;;;;;;;;;;5071106;28;20406;-76
2022/03/30 12:02:41;;;;;;;0.70;0.70;;;;;;;;;;5067692;28;20458;-77
2022/03/30 12:05:08;;;;;;;0.80;0.70;;;;;;;;;;5053426;28;20460;-77
2022/03/30 12:07:36;;;;;;;0.80;0.80;;;;;;;;;;5066206;28;20505;-77
2022/03/30 12:10:05;;;;;;;1.10;0.90;;;;;;;;;;5073573;28;20431;-77
2022/03/30 12:12:36;;;;;;;1.00;0.80;;;;;;;;;;5057059;28;20443;-78
2022/03/30 12:15:04;;;;;;;0.80;0.70;;;;;;;;;;5068401;28;20514;-74
2022/03/30 12:17:32;;;;;;;1.10;1.00;;;;;;;;;;5065765;28;20436;-75
2022/03/30 12:20:00;;;;;;;1.27;1.17;;;;;;;;;;5073700;28;20447;-77
2022/03/30 12:22:28;;;;;;;3.33;1.23;;;;;;;;;;5053706;28;20938;-79
2022/03/30 12:24:55;;;;;;;1.50;1.40;;;;;;;;;;5061455;28;20471;-76
2022/03/30 12:27:23;;;;;;;1.40;0.93;;;;;;;;;;5073995;28;20470;-76
2022/03/30 12:29:53;;;;;;;1.07;1.00;;;;;;;;;;5071269;28;20500;-75
2022/03/30 12:32:23;;;;;;;0.73;0.70;;;;;;;;;;5075085;28;20454;-75
2022/03/30 12:35:04;;;;;;;0.80;0.80;;;;;;;;;;5070603;28;20465;-77
2022/03/30 12:37:31;;;;;;;0.80;0.70;;;;;;;;;;5073191;28;20460;-77
2022/03/30 12:40:06;;;;;;;0.80;0.80;;;;;;;;;;5052097;28;20436;-77
2022/03/30 12:42:34;;;;;;;0.70;0.60;;;;;;;;;;5054225;28;20435;-76
2022/03/30 12:45:05;;;;;;;1.57;1.20;;;;;;;;;;5065118;28;20479;-78
2022/03/30 12:47:33;;;;;;;0.80;0.70;;;;;;;;;;5060977;28;20870;-77
2022/03/30 12:50:00;;;;;;;0.80;0.70;;;;;;;;;;5052671;28;21001;-79
2022/03/30 12:52:34;;;;;;;0.73;0.70;;;;;;;;;;5052506;28;20467;-79
2022/03/30 12:55:15;;;;;;;0.77;0.70;;;;;;;;;;5069850;28;20438;-79
2022/03/30 12:57:51;;;;;;;1.50;1.40;;;;;;;;;;5065678;28;20447;-79
2022/03/30 13:00:18;;;;;;;0.70;0.70;;;;;;;;;;5072133;28;20904;-78
2022/03/30 13:02:47;;;;;;;0.70;0.70;;;;;;;;;;5061265;28;20445;-80
2022/03/30 13:05:22;;;;;;;0.80;0.80;;;;;;;;;;5069148;28;20475;-79
2022/03/30 13:07:49;;;;;;;0.70;0.70;;;;;;;;;;5070351;28;20474;-79
2022/03/30 13:10:18;;;;;;;0.80;0.73;;;;;;;;;;5060766;28;20536;-77
2022/03/30 13:12:49;;;;;;;0.77;0.67;;;;;;;;;;5053133;28;20518;-79
2022/03/30 13:15:18;;;;;;;0.90;0.73;;;;;;;;;;5052512;28;20490;-78
2022/03/30 13:17:56;;;;;;;0.77;0.70;;;;;;;;;;5054425;28;20404;-78
2022/03/30 13:20:23;;;;;;;0.70;0.60;;;;;;;;;;5069719;28;20853;-78
2022/03/30 13:22:50;;;;;;;0.80;0.80;;;;;;;;;;5072967;28;20459;-78
2022/03/30 13:25:28;;;;;;;0.80;0.70;;;;;;;;;;5069147;28;20551;-78
2022/03/30 13:27:55;;;;;;;0.80;0.70;;;;;;;;;;5053782;28;20482;-79
2022/03/30 13:30:24;;;;;;;0.80;0.73;;;;;;;;;;5087410;28;20546;-78
2022/03/30 13:32:57;;;;;;;0.90;0.90;;;;;;;;;;5056245;28;20451;-78
2022/03/30 13:35:23;;;;;;;1.00;0.83;;;;;;;;;;5067570;28;20588;-77
2022/03/30 13:37:52;;;;;;;0.80;0.70;;;;;;;;;;5073631;28;20410;-79
2022/03/30 13:40:18;;;;;;;1.13;1.03;;;;;;;;;;5071161;28;20418;-77
2022/03/30 13:42:46;;;;;;;0.80;0.70;;;;;;;;;;5056965;28;20420;-78
2022/03/30 13:45:14;;;;;;;0.70;0.60;;;;;;;;;;5053142;28;20448;-78
2022/03/30 13:47:49;;;;;;;0.80;0.70;;;;;;;;;;5062070;28;20467;-79
2022/03/30 13:50:16;;;;;;;0.77;0.70;;;;;;;;;;5052724;28;20414;-75
2022/03/30 13:52:43;;;;;;;0.80;0.70;;;;;;;;;;5053959;28;20516;-78
2022/03/30 13:55:10;;;;;;;0.70;0.60;;;;;;;;;;5053014;28;20444;-78
2022/03/30 13:57:37;;;;;;;1.00;0.90;;;;;;;;;;5052592;28;20526;-78
2022/03/30 14:00:08;;;;;;;0.97;0.87;;;;;;;;;;5063226;28;20446;-79
2022/03/30 14:02:37;;;;;;;1.10;1.00;;;;;;;;;;5072215;28;20915;-78
2022/03/30 14:05:06;;;;;;;1.10;0.83;;;;;;;;;;5071323;28;20418;-76
2022/03/30 14:07:33;;;;;;;0.80;0.70;;;;;;;;;;5072436;28;20448;-77
2022/03/30 14:09:59;;;;;;;0.90;0.90;;;;;;;;;;5073445;28;20408;-80
2022/03/30 14:12:27;;;;;;;0.80;0.70;;;;;;;;;;5059668;28;20494;-76
2022/03/30 14:14:54;;;;;;;2.50;1.53;;;;;;;;;;5063362;28;20433;-75
2022/03/30 14:17:22;;;;;;;0.80;0.80;;;;;;;;;;5055815;28;20534;-76
2022/03/30 14:19:48;;;;;;;0.70;0.67;;;;;;;;;;5069852;28;20894;-76
2022/03/30 14:22:16;;;;;;;0.70;0.70;;;;;;;;;;5055759;28;20464;-76
2022/03/30 14:24:43;;;;;;;0.80;0.77;;;;;;;;;;5069105;28;21006;-76
2022/03/30 14:27:10;;;;;;;0.93;0.83;;;;;;;;;;5057996;28;20856;-75
2022/03/30 14:29:36;;;;;;;0.70;0.70;;;;;;;;;;5045199;28;20457;-76
2022/03/30 14:32:03;;;;;;;0.70;0.60;;;;;;;;;;5073249;28;20903;-77
2022/03/30 14:34:30;;;;;;;0.80;0.70;;;;;;;;;;5063845;28;20505;-76
2022/03/30 14:36:57;;;;;;;0.70;0.70;;;;;;;;;;5059002;28;20882;-77
2022/03/30 14:39:25;;;;;;;0.80;0.77;;;;;;;;;;5058502;28;20551;-76
2022/03/30 14:41:52;;;;;;;0.80;0.80;;;;;;;;;;5054527;28;20430;-77
2022/03/30 14:44:20;;;;;;;0.70;0.60;;;;;;;;;;5059909;28;20432;-76
2022/03/30 14:46:47;;;;;;;0.80;0.80;;;;;;;;;;5051688;28;20463;-76
2022/03/30 14:49:18;;;;;;;0.90;0.80;;;;;;;;;;5051943;28;20467;-76
2022/03/30 14:51:45;;;;;;;0.70;0.60;;;;;;;;;;5065625;28;20506;-77
2022/03/30 14:54:12;;;;;;;0.70;0.70;;;;;;;;;;5063106;28;20438;-76
2022/03/30 14:56:41;;;;;;;1.67;1.57;;;;;;;;;;5053689;28;20444;-76
2022/03/30 14:59:07;;;;;;;0.70;0.70;;;;;;;;;;5058310;28;20443;-76
2022/03/30 15:01:34;;;;;;;0.70;0.60;;;;;;;;;;5055134;28;20514;-76
2022/03/30 15:04:02;;;;;;;0.80;0.70;;;;;;;;;;5063715;28;20540;-77
2022/03/30 15:06:29;;;;;;;1.27;1.17;;;;;;;;;;5056145;28;20460;-76